sensor_id;sensor_type;location;lat;lon;timestamp;pressure;altitude;pressure_sealevel;temperature;humidity
49377;BME280;35253;34.688;33.040;2023-03-22T00:00:45;100653.88;;;15.73;100.00
49377;BME280;35253;34.688;33.040;2023-03-22T00:03:11;100654.56;;;15.86;100.00
49377;BME280;35253;34.688;33.040;2023-03-22T00:05:36;100666.41;;;15.95;100.00
49377;BME280;35253;34.688;33.040;2023-03-22T00:08:04;100662.00;;;15.94;100.00
49377;BME280;35253;34.688;33.040;2023-03-22T00:10:32;100652.72;;;15.98;100.00
49377;BME280;35253;34.688;33.040;2023-03-22T00:12:58;100648.81;;;15.91;100.00
49377;BME280;35253;34.688;33.040;2023-03-22T00:15:24;100642.97;;;15.86;100.00
49377;BME280;35253;34.688;33.040;2023-03-22T00:17:50;100634.81;;;15.65;100.00
49377;BME280;35253;34.688;33.040;2023-03-22T00:20:17;100635.88;;;15.40;100.00
49377;BME280;35253;34.688;33.040;2023-03-22T00:22:45;100642.63;;;15.34;100.00
49377;BME280;35253;34.688;33.040;2023-03-22T00:25:11;100627.22;;;15.48;100.00
49377;BME280;35253;34.688;33.040;2023-03-22T00:27:36;100621.88;;;15.59;100.00
49377;BME280;35253;34.688;33.040;2023-03-22T00:30:03;100612.47;;;15.64;100.00
49377;BME280;35253;34.688;33.040;2023-03-22T00:32:34;100609.03;;;15.73;100.00
49377;BME280;35253;34.688;33.040;2023-03-22T00:35:00;100623.31;;;15.74;100.00
49377;BME280;35253;34.688;33.040;2023-03-22T00:37:26;100612.31;;;15.77;100.00
49377;BME280;35253;34.688;33.040;2023-03-22T00:40:00;100628.19;;;15.80;100.00
49377;BME280;35253;34.688;33.040;2023-03-22T00:42:25;100625.41;;;15.48;100.00
49377;BME280;35253;34.688;33.040;2023-03-22T00:44:51;100630.16;;;15.11;100.00
49377;BME280;35253;34.688;33.040;2023-03-22T00:47:17;100621.22;;;15.00;100.00
49377;BME280;35253;34.688;33.040;2023-03-22T00:49:43;100625.16;;;15.18;100.00
49377;BME280;35253;34.688;33.040;2023-03-22T00:52:08;100630.75;;;15.15;100.00
49377;BME280;35253;34.688;33.040;2023-03-22T00:54:34;100624.16;;;15.08;100.00
49377;BME280;35253;34.688;33.040;2023-03-22T00:57:00;100622.22;;;15.32;100.00
49377;BME280;35253;34.688;33.040;2023-03-22T00:59:25;100617.81;;;15.42;100.00
49377;BME280;35253;34.688;33.040;2023-03-22T01:01:52;100609.91;;;15.52;100.00
49377;BME280;35253;34.688;33.040;2023-03-22T01:04:19;100606.59;;;15.59;100.00
49377;BME280;35253;34.688;33.040;2023-03-22T01:06:53;100605.75;;;15.59;100.00
49377;BME280;35253;34.688;33.040;2023-03-22T01:09:27;100600.75;;;15.65;100.00
49377;BME280;35253;34.688;33.040;2023-03-22T01:12:00;100604.88;;;15.58;100.00
49377;BME280;35253;34.688;33.040;2023-03-22T01:14:27;100605.63;;;15.60;100.00
49377;BME280;35253;34.688;33.040;2023-03-22T01:16:53;100599.75;;;15.44;100.00
49377;BME280;35253;34.688;33.040;2023-03-22T01:19:22;100588.53;;;15.50;100.00
49377;BME280;35253;34.688;33.040;2023-03-22T01:21:49;100593.91;;;15.50;100.00
49377;BME280;35253;34.688;33.040;2023-03-22T01:24:15;100590.47;;;15.59;100.00
49377;BME280;35253;34.688;33.040;2023-03-22T01:26:41;100586.34;;;15.55;100.00
49377;BME280;35253;34.688;33.040;2023-03-22T01:29:07;100581.81;;;15.56;100.00
49377;BME280;35253;34.688;33.040;2023-03-22T01:31:33;100589.28;;;15.52;100.00
49377;BME280;35253;34.688;33.040;2023-03-22T01:33:59;100593.69;;;15.53;100.00
49377;BME280;35253;34.688;33.040;2023-03-22T01:36:24;100588.53;;;15.61;100.00
49377;BME280;35253;34.688;33.040;2023-03-22T01:38:50;100599.50;;;15.58;100.00
49377;BME280;35253;34.688;33.040;2023-03-22T01:41:16;100600.00;;;15.63;100.00
49377;BME280;35253;34.688;33.040;2023-03-22T01:43:42;100591.69;;;15.55;100.00
49377;BME280;35253;34.688;33.040;2023-03-22T01:46:08;100589.13;;;15.54;100.00
49377;BME280;35253;34.688;33.040;2023-03-22T01:48:36;100592.16;;;15.49;100.00
49377;BME280;35253;34.688;33.040;2023-03-22T01:51:09;100595.38;;;15.54;100.00
49377;BME280;35253;34.688;33.040;2023-03-22T01:53:43;100590.75;;;15.56;100.00
49377;BME280;35253;34.688;33.040;2023-03-22T01:56:11;100596.22;;;15.55;100.00
49377;BME280;35253;34.688;33.040;2023-03-22T01:58:38;100600.50;;;15.57;100.00
49377;BME280;35253;34.688;33.040;2023-03-22T02:01:06;100614.66;;;15.59;100.00
49377;BME280;35253;34.688;33.040;2023-03-22T02:06:23;100622.50;;;15.51;100.00
49377;BME280;35253;34.688;33.040;2023-03-22T02:08:50;100611.97;;;15.70;100.00
49377;BME280;35253;34.688;33.040;2023-03-22T02:11:26;100603.44;;;15.65;100.00
49377;BME280;35253;34.688;33.040;2023-03-22T02:16:57;100613.66;;;15.49;100.00
49377;BME280;35253;34.688;33.040;2023-03-22T02:19:37;100611.22;;;15.46;100.00
49377;BME280;35253;34.688;33.040;2023-03-22T02:22:37;100621.00;;;15.47;100.00
49377;BME280;35253;34.688;33.040;2023-03-22T02:33:18;100630.75;;;15.15;100.00
49377;BME280;35253;34.688;33.040;2023-03-22T02:42:20;100640.50;;;15.27;100.00
49377;BME280;35253;34.688;33.040;2023-03-22T02:44:57;100647.88;;;15.25;100.00
49377;BME280;35253;34.688;33.040;2023-03-22T02:47:37;100644.09;;;15.39;100.00
49377;BME280;35253;34.688;33.040;2023-03-22T02:52:45;100652.97;;;15.17;100.00
49377;BME280;35253;34.688;33.040;2023-03-22T02:55:20;100647.59;;;15.28;100.00
49377;BME280;35253;34.688;33.040;2023-03-22T02:57:55;100651.41;;;15.37;100.00
49377;BME280;35253;34.688;33.040;2023-03-22T03:00:24;100652.75;;;15.31;100.00
49377;BME280;35253;34.688;33.040;2023-03-22T03:02:53;100660.69;;;15.32;100.00
49377;BME280;35253;34.688;33.040;2023-03-22T03:05:21;100665.94;;;15.34;100.00
49377;BME280;35253;34.688;33.040;2023-03-22T03:07:52;100672.28;;;15.33;100.00
49377;BME280;35253;34.688;33.040;2023-03-22T03:10:21;100676.78;;;15.21;100.00
49377;BME280;35253;34.688;33.040;2023-03-22T03:12:47;100673.00;;;15.24;100.00
49377;BME280;35253;34.688;33.040;2023-03-22T03:15:19;100673.25;;;15.21;100.00
49377;BME280;35253;34.688;33.040;2023-03-22T03:28:42;100670.22;;;15.25;100.00
49377;BME280;35253;34.688;33.040;2023-03-22T03:34:25;100671.78;;;15.17;100.00
49377;BME280;35253;34.688;33.040;2023-03-22T03:37:04;100680.09;;;15.25;100.00
49377;BME280;35253;34.688;33.040;2023-03-22T03:39:36;100692.88;;;15.10;100.00
49377;BME280;35253;34.688;33.040;2023-03-22T03:42:05;100689.84;;;15.15;100.00
49377;BME280;35253;34.688;33.040;2023-03-22T03:44:34;100701.69;;;15.12;100.00
49377;BME280;35253;34.688;33.040;2023-03-22T03:47:01;100693.28;;;15.17;100.00
49377;BME280;35253;34.688;33.040;2023-03-22T03:49:27;100690.69;;;15.15;100.00
49377;BME280;35253;34.688;33.040;2023-03-22T03:51:54;100690.53;;;15.06;100.00
49377;BME280;35253;34.688;33.040;2023-03-22T03:54:21;100693.13;;;15.07;100.00
49377;BME280;35253;34.688;33.040;2023-03-22T03:56:48;100701.06;;;15.09;100.00
49377;BME280;35253;34.688;33.040;2023-03-22T03:59:17;100698.13;;;15.12;100.00
49377;BME280;35253;34.688;33.040;2023-03-22T04:01:45;100707.41;;;15.08;100.00
49377;BME280;35253;34.688;33.040;2023-03-22T04:04:24;100699.59;;;15.05;100.00
49377;BME280;35253;34.688;33.040;2023-03-22T04:06:58;100705.88;;;14.93;100.00
49377;BME280;35253;34.688;33.040;2023-03-22T04:09:25;100722.00;;;14.93;100.00
49377;BME280;35253;34.688;33.040;2023-03-22T04:11:52;100722.06;;;14.80;100.00
49377;BME280;35253;34.688;33.040;2023-03-22T04:14:19;100730.66;;;14.85;100.00
49377;BME280;35253;34.688;33.040;2023-03-22T04:16:45;100723.75;;;15.05;100.00
49377;BME280;35253;34.688;33.040;2023-03-22T04:19:11;100734.00;;;15.00;100.00
49377;BME280;35253;34.688;33.040;2023-03-22T04:21:36;100722.41;;;15.10;100.00
49377;BME280;35253;34.688;33.040;2023-03-22T04:24:02;100729.91;;;15.18;100.00
49377;BME280;35253;34.688;33.040;2023-03-22T04:26:28;100731.81;;;15.05;100.00
49377;BME280;35253;34.688;33.040;2023-03-22T04:28:54;100729.16;;;15.16;100.00
49377;BME280;35253;34.688;33.040;2023-03-22T04:31:21;100742.84;;;15.24;100.00
49377;BME280;35253;34.688;33.040;2023-03-22T04:33:46;100746.50;;;15.23;100.00
49377;BME280;35253;34.688;33.040;2023-03-22T04:36:14;100744.56;;;15.25;100.00
49377;BME280;35253;34.688;33.040;2023-03-22T04:38:44;100747.97;;;15.27;100.00
49377;BME280;35253;34.688;33.040;2023-03-22T04:41:10;100759.09;;;15.33;100.00
49377;BME280;35253;34.688;33.040;2023-03-22T04:43:35;100766.69;;;15.40;100.00
49377;BME280;35253;34.688;33.040;2023-03-22T04:46:08;100782.88;;;15.27;100.00
49377;BME280;35253;34.688;33.040;2023-03-22T04:48:38;100783.78;;;15.39;100.00
49377;BME280;35253;34.688;33.040;2023-03-22T04:51:05;100775.91;;;15.59;100.00
49377;BME280;35253;34.688;33.040;2023-03-22T04:53:31;100789.38;;;15.70;100.00
49377;BME280;35253;34.688;33.040;2023-03-22T04:55:57;100808.47;;;15.44;100.00
49377;BME280;35253;34.688;33.040;2023-03-22T04:58:24;100810.75;;;15.37;100.00
49377;BME280;35253;34.688;33.040;2023-03-22T05:00:51;100811.94;;;15.22;100.00
49377;BME280;35253;34.688;33.040;2023-03-22T05:03:21;100827.22;;;15.32;100.00
49377;BME280;35253;34.688;33.040;2023-03-22T05:05:54;100828.63;;;15.49;100.00
49377;BME280;35253;34.688;33.040;2023-03-22T05:08:21;100834.47;;;15.78;100.00
49377;BME280;35253;34.688;33.040;2023-03-22T05:10:50;100834.59;;;15.88;100.00
49377;BME280;35253;34.688;33.040;2023-03-22T05:13:17;100831.06;;;16.20;100.00
49377;BME280;35253;34.688;33.040;2023-03-22T05:15:44;100844.88;;;16.38;100.00
49377;BME280;35253;34.688;33.040;2023-03-22T05:18:10;100849.78;;;16.22;100.00
49377;BME280;35253;34.688;33.040;2023-03-22T05:20:35;100855.16;;;16.22;100.00
49377;BME280;35253;34.688;33.040;2023-03-22T05:23:01;100859.78;;;16.53;100.00
49377;BME280;35253;34.688;33.040;2023-03-22T05:25:28;100859.44;;;16.24;100.00
49377;BME280;35253;34.688;33.040;2023-03-22T05:27:54;100863.34;;;16.54;100.00
49377;BME280;35253;34.688;33.040;2023-03-22T05:30:20;100860.03;;;16.50;100.00
49377;BME280;35253;34.688;33.040;2023-03-22T05:32:45;100863.72;;;16.49;100.00
49377;BME280;35253;34.688;33.040;2023-03-22T05:35:12;100869.84;;;16.40;100.00
49377;BME280;35253;34.688;33.040;2023-03-22T05:37:38;100862.75;;;16.39;100.00
49377;BME280;35253;34.688;33.040;2023-03-22T05:40:05;100874.22;;;16.41;100.00
49377;BME280;35253;34.688;33.040;2023-03-22T05:42:34;100874.50;;;16.72;100.00
49377;BME280;35253;34.688;33.040;2023-03-22T05:45:01;100882.19;;;16.65;100.00
49377;BME280;35253;34.688;33.040;2023-03-22T05:47:27;100877.78;;;16.64;100.00
49377;BME280;35253;34.688;33.040;2023-03-22T05:49:52;100880.09;;;16.68;100.00
49377;BME280;35253;34.688;33.040;2023-03-22T05:52:18;100864.44;;;16.85;100.00
49377;BME280;35253;34.688;33.040;2023-03-22T05:54:44;100856.78;;;17.01;100.00
49377;BME280;35253;34.688;33.040;2023-03-22T05:57:09;100865.13;;;16.98;100.00
49377;BME280;35253;34.688;33.040;2023-03-22T05:59:35;100873.38;;;17.17;100.00
49377;BME280;35253;34.688;33.040;2023-03-22T06:02:01;100894.44;;;17.23;100.00
49377;BME280;35253;34.688;33.040;2023-03-22T06:04:27;100896.06;;;17.03;100.00
49377;BME280;35253;34.688;33.040;2023-03-22T06:06:53;100896.34;;;17.00;100.00
49377;BME280;35253;34.688;33.040;2023-03-22T06:09:19;100890.31;;;17.08;100.00
49377;BME280;35253;34.688;33.040;2023-03-22T06:11:45;100890.09;;;17.00;100.00
49377;BME280;35253;34.688;33.040;2023-03-22T06:14:10;100897.69;;;16.95;100.00
49377;BME280;35253;34.688;33.040;2023-03-22T06:16:36;100915.38;;;17.20;100.00
49377;BME280;35253;34.688;33.040;2023-03-22T06:19:02;100910.72;;;17.22;100.00
49377;BME280;35253;34.688;33.040;2023-03-22T06:21:28;100911.94;;;17.29;100.00
49377;BME280;35253;34.688;33.040;2023-03-22T06:23:53;100912.69;;;17.51;100.00
49377;BME280;35253;34.688;33.040;2023-03-22T06:26:19;100911.22;;;17.79;100.00
49377;BME280;35253;34.688;33.040;2023-03-22T06:28:45;100914.47;;;17.94;100.00
49377;BME280;35253;34.688;33.040;2023-03-22T06:31:10;100913.72;;;17.71;100.00
49377;BME280;35253;34.688;33.040;2023-03-22T06:33:36;100918.78;;;17.65;100.00
49377;BME280;35253;34.688;33.040;2023-03-22T06:36:02;100923.22;;;17.54;100.00
49377;BME280;35253;34.688;33.040;2023-03-22T06:38:29;100933.75;;;17.57;100.00
49377;BME280;35253;34.688;33.040;2023-03-22T06:40:55;100936.72;;;17.43;100.00
49377;BME280;35253;34.688;33.040;2023-03-22T06:43:20;100931.78;;;17.60;100.00
49377;BME280;35253;34.688;33.040;2023-03-22T06:45:47;100937.47;;;17.77;100.00
49377;BME280;35253;34.688;33.040;2023-03-22T06:48:13;100938.59;;;17.95;100.00
49377;BME280;35253;34.688;33.040;2023-03-22T06:50:40;100938.75;;;17.94;100.00
49377;BME280;35253;34.688;33.040;2023-03-22T06:53:06;100929.22;;;17.90;100.00
49377;BME280;35253;34.688;33.040;2023-03-22T06:55:32;100938.47;;;17.97;100.00
49377;BME280;35253;34.688;33.040;2023-03-22T06:58:02;100928.94;;;17.93;100.00
49377;BME280;35253;34.688;33.040;2023-03-22T07:00:29;100925.56;;;18.00;100.00
49377;BME280;35253;34.688;33.040;2023-03-22T07:02:55;100920.38;;;17.88;100.00
49377;BME280;35253;34.688;33.040;2023-03-22T07:05:20;100925.69;;;17.78;100.00
49377;BME280;35253;34.688;33.040;2023-03-22T07:07:46;100920.38;;;17.88;100.00
49377;BME280;35253;34.688;33.040;2023-03-22T07:10:12;100928.00;;;17.83;100.00
49377;BME280;35253;34.688;33.040;2023-03-22T07:12:37;100926.81;;;17.76;100.00
49377;BME280;35253;34.688;33.040;2023-03-22T07:15:03;100920.84;;;17.93;100.00
49377;BME280;35253;34.688;33.040;2023-03-22T07:17:29;100916.91;;;17.76;100.00
49377;BME280;35253;34.688;33.040;2023-03-22T07:19:55;100926.03;;;17.85;100.00
49377;BME280;35253;34.688;33.040;2023-03-22T07:22:21;100928.16;;;17.81;100.00
49377;BME280;35253;34.688;33.040;2023-03-22T07:24:53;100924.84;;;17.78;100.00
49377;BME280;35253;34.688;33.040;2023-03-22T07:27:18;100921.22;;;18.09;100.00
49377;BME280;35253;34.688;33.040;2023-03-22T07:29:44;100920.69;;;18.15;100.00
49377;BME280;35253;34.688;33.040;2023-03-22T07:32:10;100921.94;;;18.32;100.00
49377;BME280;35253;34.688;33.040;2023-03-22T07:34:36;100925.34;;;18.55;100.00
49377;BME280;35253;34.688;33.040;2023-03-22T07:37:02;100919.81;;;18.66;100.00
49377;BME280;35253;34.688;33.040;2023-03-22T07:39:28;100917.84;;;18.37;100.00
49377;BME280;35253;34.688;33.040;2023-03-22T07:41:55;100926.78;;;18.59;100.00
49377;BME280;35253;34.688;33.040;2023-03-22T07:44:21;100929.22;;;18.41;100.00
49377;BME280;35253;34.688;33.040;2023-03-22T07:46:47;100925.19;;;18.35;100.00
49377;BME280;35253;34.688;33.040;2023-03-22T07:49:15;100928.19;;;18.32;100.00
49377;BME280;35253;34.688;33.040;2023-03-22T07:51:41;100929.53;;;18.47;100.00
49377;BME280;35253;34.688;33.040;2023-03-22T07:54:06;100924.41;;;18.44;100.00
49377;BME280;35253;34.688;33.040;2023-03-22T07:56:32;100929.81;;;18.44;100.00
49377;BME280;35253;34.688;33.040;2023-03-22T07:58:58;100930.22;;;18.70;100.00
49377;BME280;35253;34.688;33.040;2023-03-22T08:01:23;100934.00;;;18.88;100.00
49377;BME280;35253;34.688;33.040;2023-03-22T08:03:50;100935.13;;;18.96;100.00
49377;BME280;35253;34.688;33.040;2023-03-22T08:06:15;100942.53;;;18.94;100.00
49377;BME280;35253;34.688;33.040;2023-03-22T08:08:44;100962.72;;;18.89;100.00
49377;BME280;35253;34.688;33.040;2023-03-22T08:11:10;100956.28;;;18.81;100.00
49377;BME280;35253;34.688;33.040;2023-03-22T08:13:37;100953.13;;;18.76;100.00
49377;BME280;35253;34.688;33.040;2023-03-22T08:16:03;100955.84;;;18.76;100.00
49377;BME280;35253;34.688;33.040;2023-03-22T08:18:29;100965.56;;;18.88;100.00
49377;BME280;35253;34.688;33.040;2023-03-22T08:20:57;100965.78;;;18.75;100.00
49377;BME280;35253;34.688;33.040;2023-03-22T08:23:25;100973.13;;;18.94;100.00
49377;BME280;35253;34.688;33.040;2023-03-22T08:25:51;100968.16;;;19.09;100.00
49377;BME280;35253;34.688;33.040;2023-03-22T08:28:18;100960.81;;;19.20;100.00
49377;BME280;35253;34.688;33.040;2023-03-22T08:30:46;100947.72;;;19.16;100.00
49377;BME280;35253;34.688;33.040;2023-03-22T08:33:12;100953.72;;;18.79;100.00
49377;BME280;35253;34.688;33.040;2023-03-22T08:35:38;100947.09;;;18.93;100.00
49377;BME280;35253;34.688;33.040;2023-03-22T08:38:04;100946.13;;;19.13;100.00
49377;BME280;35253;34.688;33.040;2023-03-22T08:40:30;100951.53;;;19.13;100.00
49377;BME280;35253;34.688;33.040;2023-03-22T08:42:56;100946.13;;;19.13;100.00
49377;BME280;35253;34.688;33.040;2023-03-22T08:45:23;100956.19;;;18.92;100.00
49377;BME280;35253;34.688;33.040;2023-03-22T08:47:49;100952.00;;;19.28;100.00
49377;BME280;35253;34.688;33.040;2023-03-22T08:50:15;100946.88;;;19.25;100.00
49377;BME280;35253;34.688;33.040;2023-03-22T08:52:41;100942.03;;;19.28;100.00
49377;BME280;35253;34.688;33.040;2023-03-22T08:55:07;100946.47;;;19.29;100.00
49377;BME280;35253;34.688;33.040;2023-03-22T08:57:34;100935.50;;;19.21;100.00
49377;BME280;35253;34.688;33.040;2023-03-22T09:00:00;100934.34;;;19.14;100.00
49377;BME280;35253;34.688;33.040;2023-03-22T09:02:26;100936.91;;;19.35;100.00
49377;BME280;35253;34.688;33.040;2023-03-22T09:04:52;100919.16;;;19.42;100.00
49377;BME280;35253;34.688;33.040;2023-03-22T09:07:18;100915.63;;;19.51;100.00
49377;BME280;35253;34.688;33.040;2023-03-22T09:09:49;100912.94;;;19.51;100.00
49377;BME280;35253;34.688;33.040;2023-03-22T09:12:15;100916.72;;;19.29;100.00
49377;BME280;35253;34.688;33.040;2023-03-22T09:14:41;100922.84;;;19.31;100.00
49377;BME280;35253;34.688;33.040;2023-03-22T09:17:07;100916.50;;;19.52;100.00
49377;BME280;35253;34.688;33.040;2023-03-22T09:19:33;100911.47;;;19.38;100.00
49377;BME280;35253;34.688;33.040;2023-03-22T09:21:58;100922.47;;;19.55;100.00
49377;BME280;35253;34.688;33.040;2023-03-22T09:24:24;100938.28;;;19.60;100.00
49377;BME280;35253;34.688;33.040;2023-03-22T09:26:50;100943.66;;;19.50;100.00
49377;BME280;35253;34.688;33.040;2023-03-22T09:29:16;100946.47;;;19.29;100.00
49377;BME280;35253;34.688;33.040;2023-03-22T09:31:43;100934.09;;;19.36;100.00
49377;BME280;35253;34.688;33.040;2023-03-22T09:34:13;100939.53;;;19.46;100.00
49377;BME280;35253;34.688;33.040;2023-03-22T09:36:39;100931.19;;;19.09;100.00
49377;BME280;35253;34.688;33.040;2023-03-22T09:39:04;100925.53;;;19.31;100.00
49377;BME280;35253;34.688;33.040;2023-03-22T09:41:53;100920.31;;;19.49;100.00
49377;BME280;35253;34.688;33.040;2023-03-22T09:44:24;100918.47;;;19.69;100.00
49377;BME280;35253;34.688;33.040;2023-03-22T09:46:53;100912.78;;;19.72;100.00
49377;BME280;35253;34.688;33.040;2023-03-22T09:49:24;100903.91;;;19.41;100.00
49377;BME280;35253;34.688;33.040;2023-03-22T09:51:52;100903.34;;;19.38;100.00
49377;BME280;35253;34.688;33.040;2023-03-22T09:54:33;100885.56;;;19.16;100.00
49377;BME280;35253;34.688;33.040;2023-03-22T09:57:06;100890.25;;;19.23;100.00
49377;BME280;35253;34.688;33.040;2023-03-22T09:59:57;100883.56;;;19.37;100.00
49377;BME280;35253;34.688;33.040;2023-03-22T10:02:43;100883.00;;;19.53;100.00
49377;BME280;35253;34.688;33.040;2023-03-22T10:08:04;100876.06;;;19.50;100.00
49377;BME280;35253;34.688;33.040;2023-03-22T10:10:32;100872.94;;;19.55;100.00
49377;BME280;35253;34.688;33.040;2023-03-22T10:12:59;100872.91;;;19.74;100.00
49377;BME280;35253;34.688;33.040;2023-03-22T10:15:37;100870.47;;;19.90;100.00
49377;BME280;35253;34.688;33.040;2023-03-22T10:18:12;100860.09;;;19.76;100.00
49377;BME280;35253;34.688;33.040;2023-03-22T10:20:57;100870.22;;;19.74;100.00
49377;BME280;35253;34.688;33.040;2023-03-22T10:23:41;100867.06;;;19.69;100.00
49377;BME280;35253;34.688;33.040;2023-03-22T10:26:18;100857.00;;;19.61;100.00
49377;BME280;35253;34.688;33.040;2023-03-22T10:28:48;100864.91;;;19.82;100.00
49377;BME280;35253;34.688;33.040;2023-03-22T10:31:18;100861.25;;;19.64;100.00
49377;BME280;35253;34.688;33.040;2023-03-22T10:33:51;100856.56;;;19.47;100.00
49377;BME280;35253;34.688;33.040;2023-03-22T10:36:23;100857.53;;;19.36;100.00
49377;BME280;35253;34.688;33.040;2023-03-22T10:39:02;100851.69;;;19.31;100.00
49377;BME280;35253;34.688;33.040;2023-03-22T10:41:31;100850.69;;;19.42;100.00
49377;BME280;35253;34.688;33.040;2023-03-22T10:44:00;100856.13;;;19.51;100.00
49377;BME280;35253;34.688;33.040;2023-03-22T10:46:32;100848.84;;;19.42;100.00
49377;BME280;35253;34.688;33.040;2023-03-22T10:49:01;100848.13;;;19.11;100.00
49377;BME280;35253;34.688;33.040;2023-03-22T10:54:04;100853.81;;;18.99;100.00
49377;BME280;35253;34.688;33.040;2023-03-22T10:56:30;100843.56;;;19.02;100.00
49377;BME280;35253;34.688;33.040;2023-03-22T10:58:56;100846.41;;;19.10;100.00
49377;BME280;35253;34.688;33.040;2023-03-22T11:01:28;100845.97;;;19.05;100.00
49377;BME280;35253;34.688;33.040;2023-03-22T11:04:18;100832.50;;;19.24;100.00
49377;BME280;35253;34.688;33.040;2023-03-22T11:06:51;100835.75;;;19.18;100.00
49377;BME280;35253;34.688;33.040;2023-03-22T11:09:20;100841.59;;;19.04;100.00
49377;BME280;35253;34.688;33.040;2023-03-22T11:11:55;100835.72;;;18.80;100.00
49377;BME280;35253;34.688;33.040;2023-03-22T11:14:36;100847.41;;;18.90;100.00
49377;BME280;35253;34.688;33.040;2023-03-22T11:17:20;100843.09;;;18.68;100.00
49377;BME280;35253;34.688;33.040;2023-03-22T11:20:01;100828.72;;;18.68;100.00
49377;BME280;35253;34.688;33.040;2023-03-22T11:22:40;100824.69;;;18.53;100.00
49377;BME280;35253;34.688;33.040;2023-03-22T11:25:36;100822.38;;;18.48;100.00
49377;BME280;35253;34.688;33.040;2023-03-22T11:28:16;100825.44;;;18.55;100.00
49377;BME280;35253;34.688;33.040;2023-03-22T11:31:03;100830.69;;;18.66;100.00
49377;BME280;35253;34.688;33.040;2023-03-22T11:33:30;100830.88;;;18.43;100.00
49377;BME280;35253;34.688;33.040;2023-03-22T11:35:59;100832.47;;;18.46;100.00
49377;BME280;35253;34.688;33.040;2023-03-22T11:40:58;100823.44;;;18.26;100.00
49377;BME280;35253;34.688;33.040;2023-03-22T11:43:46;100820.03;;;18.24;100.00
49377;BME280;35253;34.688;33.040;2023-03-22T11:46:16;100806.88;;;18.00;100.00
49377;BME280;35253;34.688;33.040;2023-03-22T11:48:44;100811.44;;;18.10;100.00
49377;BME280;35253;34.688;33.040;2023-03-22T11:51:16;100801.41;;;18.21;100.00
49377;BME280;35253;34.688;33.040;2023-03-22T11:53:44;100803.22;;;18.11;100.00
49377;BME280;35253;34.688;33.040;2023-03-22T11:56:15;100800.59;;;18.00;100.00
49377;BME280;35253;34.688;33.040;2023-03-22T11:58:47;100805.13;;;18.20;100.00
49377;BME280;35253;34.688;33.040;2023-03-22T12:01:48;100800.13;;;18.16;100.00
49377;BME280;35253;34.688;33.040;2023-03-22T12:04:23;100800.41;;;18.22;100.00
49377;BME280;35253;34.688;33.040;2023-03-22T12:06:56;100797.72;;;18.22;100.00
49377;BME280;35253;34.688;33.040;2023-03-22T12:09:47;100804.72;;;18.34;100.00
49377;BME280;35253;34.688;33.040;2023-03-22T12:12:39;100805.84;;;18.32;100.00
49377;BME280;35253;34.688;33.040;2023-03-22T12:15:49;100797.38;;;18.46;100.00
49377;BME280;35253;34.688;33.040;2023-03-22T12:18:23;100797.63;;;18.43;100.00
49377;BME280;35253;34.688;33.040;2023-03-22T12:20:59;100797.88;;;18.30;100.00
49377;BME280;35253;34.688;33.040;2023-03-22T12:23:30;100800.59;;;18.30;100.00
49377;BME280;35253;34.688;33.040;2023-03-22T12:26:04;100797.03;;;18.20;100.00
49377;BME280;35253;34.688;33.040;2023-03-22T12:31:18;100778.84;;;18.72;100.00
49377;BME280;35253;34.688;33.040;2023-03-22T12:33:57;100788.66;;;18.92;100.00
49377;BME280;35253;34.688;33.040;2023-03-22T12:36:45;100784.41;;;18.89;100.00
49377;BME280;35253;34.688;33.040;2023-03-22T12:39:22;100777.00;;;19.01;100.00
49377;BME280;35253;34.688;33.040;2023-03-22T12:41:52;100773.44;;;19.01;100.00
49377;BME280;35253;34.688;33.040;2023-03-22T12:44:29;100766.88;;;19.32;100.00
49377;BME280;35253;34.688;33.040;2023-03-22T12:47:04;100775.56;;;19.55;100.00
49377;BME280;35253;34.688;33.040;2023-03-22T12:49:42;100773.44;;;19.49;100.00
49377;BME280;35253;34.688;33.040;2023-03-22T12:52:20;100772.72;;;19.27;100.00
49377;BME280;35253;34.688;33.040;2023-03-22T12:54:49;100765.63;;;19.46;100.00
49377;BME280;35253;34.688;33.040;2023-03-22T12:57:17;100773.28;;;19.50;100.00
49377;BME280;35253;34.688;33.040;2023-03-22T12:59:55;100778.13;;;19.27;100.00
49377;BME280;35253;34.688;33.040;2023-03-22T13:02:30;100787.53;;;19.23;100.00
49377;BME280;35253;34.688;33.040;2023-03-22T13:05:05;100776.13;;;19.39;100.00
49377;BME280;35253;34.688;33.040;2023-03-22T13:07:39;100777.84;;;19.50;100.00
49377;BME280;35253;34.688;33.040;2023-03-22T13:16:19;100776.56;;;19.15;100.00
49377;BME280;35253;34.688;33.040;2023-03-22T13:26:44;100783.25;;;19.30;100.00
49377;BME280;35253;34.688;33.040;2023-03-22T13:29:32;100781.56;;;18.91;100.00
49377;BME280;35253;34.688;33.040;2023-03-22T13:32:03;100784.69;;;18.96;100.00
49377;BME280;35253;34.688;33.040;2023-03-22T13:34:39;100780.13;;;18.87;100.00
49377;BME280;35253;34.688;33.040;2023-03-22T13:37:45;100781.84;;;19.07;100.00
49377;BME280;35253;34.688;33.040;2023-03-22T13:40:35;100781.97;;;18.96;100.00
49377;BME280;35253;34.688;33.040;2023-03-22T13:43:26;100782.41;;;18.82;100.00
49377;BME280;35253;34.688;33.040;2023-03-22T13:46:26;100787.09;;;18.80;100.00